Terminal Aerodrome Forecast
Issued by NWS Topeka, KS

Home | Current Version | Previous Version | Text Only | Print | Product List | Glossary Off
Versions: 1 2 3 4 5 6 7 8 9 10 11 12 13 14 15 16 17 18 19 20

000
FTUS43 KTOP 252100 AAA
TAFTOP
TAF AMD
KTOP 252109Z 2521/2618 17018G26KT P6SM SCT040
     FM252300 19012G22KT P6SM VCTS SCT020 BKN030CB
     FM260400 20008KT P6SM FEW040 SCT080=

USA.gov is the U.S. government's official web portal to all federal, state and local government web resources and services.